CheckWX is a tool to help pilots better visualize weather data.  It is not intended as a substitute for an official pre-flight weather briefing.

01:09:04 UTC

KGPI METAR
Glacier Park International Airport
Kalispell, Montana, USA
Current

14 mins ago

KGPI 240055Z 01018KT 9SM -SN BKN065 OVC080 M07/M12 A3013 RMK AO2 SLP243 T10721122 PNO $
Observed
Feb-24 @ 00:55 UTC
Wind
  • 010° at 18 KTS
Visibility
9 SM
Flight Rules
VFR
Conditions
Light Snow
Cloud Levels
  • Broken at 6,500' AGL
  • Overcast at 8,000' AGL
Temperature
-7°C / 19°F
Dewpoint
-12°C / 10°F
Humidity
68%
Altimeter
30.13" Hg
Pressure
1024.3 hPa
Previous

1 hour ago

KGPI 232355Z 02017KT 9SM -SN FEW037 OVC065 M07/M12 A3012 RMK AO2 SLP240 60000 T10671117 11061 21072 51015 PNO $
Observed
Feb-23 @ 23:55 UTC
Wind
  • 020° at 17 KTS
Visibility
9 SM
Flight Rules
VFR
Conditions
Light Snow
Cloud Levels
  • Few at 3,700' AGL
  • Overcast at 6,500' AGL
Temperature
-7°C / 19°F
Dewpoint
-12°C / 10°F
Humidity
68%
Altimeter
30.12" Hg
Pressure
1024 hPa
Previous

2 hours ago

KGPI 232255Z 02019KT 7SM -SN FEW035 OVC043 M07/M11 A3011 RMK AO2 SLP236 T10671111 PNO $
Observed
Feb-23 @ 22:55 UTC
Wind
  • 020° at 19 KTS
Visibility
7 SM
Flight Rules
VFR
Conditions
Light Snow
Cloud Levels
  • Few at 3,500' AGL
  • Overcast at 4,300' AGL
Temperature
-7°C / 19°F
Dewpoint
-11°C / 12°F
Humidity
73%
Altimeter
30.11" Hg
Pressure
1023.6 hPa